Time;durP1;ratioP1;P1;durP2;ratioP2;P2;SDS_P1;SDS_P2;PMS_P1;PMS_P2;Temp;Humidity;BMP_temperature;BMP_pressure;BME280_temperature;BME280_humidity;BME280_pressure;Samples;Min_cycle;Max_cycle;Signal;HPM_P1;HPM_P2
2021/11/23 11:27:32;;;;;;;9.63;1.60;;;12.30;99.90;;;;;;5094842;28;20052;-74
2021/11/23 11:30:38;;;;;;;6.05;2.55;;;12.20;99.90;;;;;;5095407;28;20503;-74
2021/11/23 11:33:03;;;;;;;;;;;12.10;99.90;;;;;;5094066;28;20036;-73
2021/11/23 11:35:32;;;;;;;5.72;1.30;;;11.90;99.90;;;;;;5110754;28;19959;-71
2021/11/23 11:38:01;;;;;;;5.28;1.75;;;11.80;99.90;;;;;;5093990;28;20195;-74
2021/11/23 11:40:33;;;;;;;7.35;2.15;;;11.60;99.90;;;;;;5097138;28;20027;-75
2021/11/23 11:43:19;;;;;;;7.32;3.38;;;11.50;99.90;;;;;;5089746;28;20028;-74
2021/11/23 11:45:52;;;;;;;7.90;2.00;;;11.30;99.90;;;;;;5093581;28;20134;-71
2021/11/23 11:48:30;;;;;;;6.20;1.38;;;11.30;99.90;;;;;;5093853;28;20099;-73
2021/11/23 11:51:13;;;;;;;8.15;0.90;;;11.30;99.90;;;;;;5104461;28;20492;-73
2021/11/23 11:53:48;;;;;;;4.55;1.00;;;11.20;99.90;;;;;;5110203;28;20034;-75
2021/11/23 11:56:24;;;;;;;9.27;1.02;;;11.30;99.90;;;;;;5112645;28;20035;-75
2021/11/23 11:58:55;;;;;;;6.55;1.13;;;11.40;99.90;;;;;;5109897;28;20059;-75
2021/11/23 12:01:29;;;;;;;4.63;1.23;;;11.40;99.90;;;;;;5093654;28;20059;-68
2021/11/23 12:04:10;;;;;;;8.02;1.63;;;11.40;99.90;;;;;;5097437;28;20016;-73
2021/11/23 12:06:59;;;;;;;5.93;1.83;;;11.50;99.90;;;;;;5105911;28;20015;-72
2021/11/23 12:09:24;;;;;;;3.28;1.27;;;11.60;99.90;;;;;;5111142;28;20019;-74
2021/11/23 12:11:50;;;;;;;4.30;1.27;;;11.90;99.90;;;;;;5112113;28;20039;-68
2021/11/23 12:14:17;;;;;;;3.80;0.68;;;12.00;99.90;;;;;;5096545;28;20444;-68
2021/11/23 12:17:00;;;;;;;4.07;0.90;;;12.10;99.90;;;;;;5104983;28;20044;-70
2021/11/23 12:19:39;;;;;;;3.08;1.35;;;12.20;99.90;;;;;;5112265;28;20026;-71
2021/11/23 12:22:22;;;;;;;4.60;1.13;;;12.40;99.90;;;;;;5093076;28;20032;-72
2021/11/23 12:24:50;;;;;;;5.32;0.75;;;12.50;99.90;;;;;;5076464;28;20030;-69
2021/11/23 12:27:17;;;;;;;4.20;1.10;;;12.70;99.90;;;;;;5097393;27;20031;-68
2021/11/23 12:29:44;;;;;;;3.25;1.02;;;12.90;99.90;;;;;;5113147;27;20027;-69
2021/11/23 12:32:10;;;;;;;2.20;0.80;;;12.90;99.90;;;;;;5101190;27;20043;-69
2021/11/23 12:34:36;;;;;;;6.18;0.98;;;13.00;99.90;;;;;;5099633;27;20423;-67
2021/11/23 12:37:05;;;;;;;4.47;0.95;;;12.90;99.90;;;;;;5099962;27;20039;-70
2021/11/23 12:39:37;;;;;;;4.28;0.93;;;12.60;99.90;;;;;;5134920;27;20030;-65
2021/11/23 12:42:12;;;;;;;7.72;0.88;;;12.50;99.90;;;;;;5099496;27;20027;-69
2021/11/23 12:44:41;;;;;;;4.57;1.77;;;12.30;99.90;;;;;;5097437;27;20020;-67
2021/11/23 12:47:13;;;;;;;3.85;1.23;;;12.10;99.90;;;;;;5095811;28;20043;-68
2021/11/23 12:49:40;;;;;;;6.13;1.08;;;12.10;99.90;;;;;;5079009;28;20061;-67
2021/11/23 12:52:11;;;;;;;2.75;1.65;;;12.00;99.90;;;;;;5095333;28;20023;-71
2021/11/23 12:54:45;;;;;;;5.07;0.82;;;12.20;99.90;;;;;;5096116;28;20076;-71
2021/11/23 12:57:13;;;;;;;5.50;1.25;;;12.20;99.90;;;;;;5079895;27;20078;-65
2021/11/23 13:00:01;;;;;;;6.05;0.80;;;12.20;99.90;;;;;;5112843;27;20426;-71
2021/11/23 13:02:28;;;;;;;3.78;0.85;;;12.40;99.90;;;;;;5096627;28;20498;-73
2021/11/23 13:05:05;;;;;;;2.53;1.05;;;12.40;99.90;;;;;;5095563;28;20023;-72
2021/11/23 13:07:32;;;;;;;4.43;1.00;;;12.30;99.90;;;;;;5101245;27;20096;-73
2021/11/23 13:10:00;;;;;;;5.40;1.23;;;12.10;99.90;;;;;;5095116;28;20081;-72
2021/11/23 13:12:31;;;;;;;5.00;1.40;;;12.00;99.90;;;;;;5100531;27;20038;-72
2021/11/23 13:15:04;;;;;;;6.70;1.00;;;12.00;99.90;;;;;;5098903;27;20066;-71
2021/11/23 13:17:42;;;;;;;2.47;1.05;;;11.90;99.90;;;;;;5106266;27;20035;-72
2021/11/23 13:20:34;;;;;;;4.57;2.22;;;11.90;99.90;;;;;;5105544;27;20020;-71
2021/11/23 13:23:31;;;;;;;2.58;0.98;;;11.90;99.90;;;;;;5106958;27;20028;-70
2021/11/23 13:26:00;;;;;;;3.75;0.75;;;12.00;99.90;;;;;;5108796;28;20051;-74
2021/11/23 13:28:35;;;;;;;4.55;1.00;;;12.10;99.90;;;;;;5093921;28;20097;-72
2021/11/23 13:31:31;;;;;;;2.15;0.90;;;12.30;99.90;;;;;;5093281;28;20024;-70
2021/11/23 13:34:05;;;;;;;3.60;0.60;;;12.30;99.90;;;;;;5089637;28;20157;-69
2021/11/23 13:36:38;;;;;;;5.10;1.83;;;12.20;99.90;;;;;;5098909;28;20561;-73
2021/11/23 13:39:04;;;;;;;5.47;1.10;;;12.10;99.90;;;;;;5082801;28;20019;-73
2021/11/23 13:41:45;;;;;;;3.75;0.82;;;12.00;99.90;;;;;;5094349;28;20042;-71
2021/11/23 13:44:20;;;;;;;3.13;0.75;;;11.80;99.90;;;;;;5099715;28;20034;-69
2021/11/23 13:46:45;;;;;;;;;;;11.70;99.90;;;;;;5111730;28;20026;-65
2021/11/23 13:49:26;;;;;;;4.63;0.90;;;11.60;99.90;;;;;;5102585;28;19908;-68
2021/11/23 13:52:18;;;;;;;2.47;0.75;;;11.60;99.90;;;;;;5092562;28;20317;-68
2021/11/23 13:54:48;;;;;;;4.10;0.90;;;11.60;99.90;;;;;;5094961;28;20020;-67
2021/11/23 13:57:23;;;;;;;5.47;0.90;;;11.70;99.90;;;;;;5090265;28;20032;-70
2021/11/23 13:59:58;;;;;;;2.78;1.10;;;11.60;99.90;;;;;;5058544;28;20115;-69
2021/11/23 14:02:44;;;;;;;4.88;1.10;;;11.60;99.90;;;;;;5075834;28;20348;-67
2021/11/23 14:05:11;;;;;;;4.63;1.33;;;11.60;99.90;;;;;;5096786;28;20024;-71
2021/11/23 14:07:53;;;;;;;3.00;0.82;;;11.50;99.90;;;;;;5074452;28;20041;-68
2021/11/23 14:10:35;;;;;;;3.13;1.38;;;11.40;99.90;;;;;;5091558;28;20091;-70
2021/11/23 14:13:07;;;;;;;1.60;0.65;;;11.30;99.90;;;;;;5091475;28;20031;-68
2021/11/23 14:15:45;;;;;;;2.40;0.75;;;11.20;99.90;;;;;;5104401;28;20474;-73
2021/11/23 14:18:17;;;;;;;1.27;0.43;;;11.20;99.90;;;;;;5099569;28;20040;-68
2021/11/23 14:20:48;;;;;;;7.32;1.70;;;11.20;99.90;;;;;;5106588;28;20020;-69
2021/11/23 14:23:25;;;;;;;4.07;1.50;;;11.20;99.90;;;;;;5091711;28;20436;-71
2021/11/23 14:26:01;;;;;;;3.75;1.48;;;11.20;99.90;;;;;;5101805;28;20059;-70
2021/11/23 14:28:27;;;;;;;1.95;0.70;;;11.20;99.90;;;;;;5090160;28;20467;-68
2021/11/23 14:30:53;;;;;;;3.63;1.33;;;11.20;99.90;;;;;;5091142;28;20027;-70
2021/11/23 14:33:23;;;;;;;2.17;0.90;;;11.10;99.90;;;;;;5091590;28;20103;-71
2021/11/23 14:35:49;;;;;;;6.40;0.95;;;11.00;99.90;;;;;;5090635;28;20027;-67
2021/11/23 14:38:15;;;;;;;2.22;1.15;;;11.10;99.90;;;;;;5089831;28;20032;-68
2021/11/23 14:40:41;;;;;;;2.50;0.90;;;11.10;99.90;;;;;;5097084;28;20020;-71
2021/11/23 14:43:06;;;;;;;1.65;0.82;;;11.10;99.90;;;;;;5108447;28;20115;-71
2021/11/23 14:45:32;;;;;;;2.22;0.73;;;11.10;99.90;;;;;;5095956;28;20111;-70
2021/11/23 14:47:57;;;;;;;5.80;1.00;;;11.00;99.90;;;;;;5104178;28;20401;-72
2021/11/23 14:50:24;;;;;;;2.58;0.77;;;11.00;99.90;;;;;;5108250;28;20036;-71
2021/11/23 14:52:49;;;;;;;2.45;0.52;;;10.90;99.90;;;;;;5090285;28;20040;-71
2021/11/23 14:55:15;;;;;;;1.30;1.00;;;10.90;99.90;;;;;;5079198;28;20020;-69
2021/11/23 14:57:41;;;;;;;2.13;0.55;;;10.90;99.90;;;;;;5089763;28;20046;-65
2021/11/23 15:00:08;;;;;;;2.70;0.80;;;10.90;99.90;;;;;;5095301;28;20513;-68
2021/11/23 15:02:34;;;;;;;3.95;0.50;;;10.90;99.90;;;;;;5094015;28;20127;-70
2021/11/23 15:05:00;;;;;;;9.40;1.50;;;10.90;99.90;;;;;;5097758;28;20108;-71
2021/11/23 15:07:26;;;;;;;2.97;1.23;;;10.90;99.90;;;;;;5094168;28;20081;-63
2021/11/23 15:09:53;;;;;;;2.55;0.50;;;10.90;99.90;;;;;;5108322;28;20028;-66
2021/11/23 15:12:19;;;;;;;2.60;0.60;;;10.90;99.90;;;;;;5108653;28;20081;-67
2021/11/23 15:14:45;;;;;;;2.78;0.57;;;10.90;99.90;;;;;;5110660;28;20032;-70
2021/11/23 15:17:11;;;;;;;5.20;1.17;;;10.90;99.90;;;;;;5107513;28;20039;-73
2021/11/23 15:19:37;;;;;;;2.03;0.88;;;10.90;99.90;;;;;;5107643;28;20032;-66
2021/11/23 15:22:04;;;;;;;5.28;1.63;;;10.80;99.90;;;;;;5103208;28;20036;-70
2021/11/23 15:24:30;;;;;;;1.85;0.93;;;10.80;99.90;;;;;;5104474;28;20027;-69
2021/11/23 15:26:56;;;;;;;4.53;0.57;;;10.70;99.90;;;;;;5093469;28;20072;-69
2021/11/23 15:29:22;;;;;;;0.45;0.30;;;10.50;99.90;;;;;;5107088;28;20069;-71
2021/11/23 15:31:49;;;;;;;5.40;1.63;;;10.40;99.90;;;;;;5081184;28;20138;-69
2021/11/23 15:34:15;;;;;;;3.78;1.55;;;10.40;99.90;;;;;;5105332;28;20051;-70
2021/11/23 15:36:41;;;;;;;3.17;1.10;;;10.20;99.90;;;;;;5103815;28;20052;-71
2021/11/23 15:39:06;;;;;;;1.90;0.60;;;10.10;99.90;;;;;;5101414;28;20386;-72
2021/11/23 15:41:32;;;;;;;1.92;0.70;;;10.00;99.90;;;;;;5097604;28;20020;-66
2021/11/23 15:44:00;;;;;;;3.38;1.58;;;9.80;99.90;;;;;;5107530;28;20077;-69
2021/11/23 15:46:26;;;;;;;8.75;0.60;;;9.70;99.90;;;;;;5087969;28;20036;-72
2021/11/23 15:48:52;;;;;;;6.65;1.42;;;9.70;99.90;;;;;;5096341;28;20023;-72
2021/11/23 15:51:18;;;;;;;5.30;2.08;;;9.70;99.90;;;;;;5079827;28;20071;-69
2021/11/23 15:53:44;;;;;;;2.28;1.20;;;9.60;99.90;;;;;;5060658;28;20474;-68
2021/11/23 15:56:13;;;;;;;5.63;1.33;;;9.60;99.90;;;;;;5084828;28;20513;-69
2021/11/23 15:58:39;;;;;;;5.35;1.50;;;9.50;99.90;;;;;;5094443;28;20436;-69
2021/11/23 16:01:05;;;;;;;4.72;0.90;;;9.50;99.90;;;;;;5093700;28;20107;-69
2021/11/23 16:03:31;;;;;;;5.20;0.90;;;9.40;99.90;;;;;;5098603;28;20032;-73
2021/11/23 16:05:57;;;;;;;1.00;0.60;;;9.40;99.90;;;;;;5088616;28;20027;-75
2021/11/23 16:08:23;;;;;;;1.35;0.70;;;9.30;99.90;;;;;;5094332;28;20035;-72
2021/11/23 16:10:50;;;;;;;5.80;1.25;;;9.30;99.90;;;;;;5063392;28;20020;-74
2021/11/23 16:13:16;;;;;;;3.55;1.17;;;9.30;99.90;;;;;;5106978;28;20034;-74
2021/11/23 16:15:42;;;;;;;3.90;0.90;;;9.20;99.90;;;;;;5111304;28;20034;-73
2021/11/23 16:18:08;;;;;;;2.92;1.25;;;9.20;99.90;;;;;;5096148;28;20036;-73
2021/11/23 16:20:33;;;;;;;5.60;1.30;;;9.20;99.90;;;;;;5096456;28;20027;-72
2021/11/23 16:22:59;;;;;;;3.60;1.75;;;9.10;99.90;;;;;;5105647;28;20080;-73
2021/11/23 16:25:25;;;;;;;5.15;1.67;;;9.10;99.90;;;;;;5093499;28;20474;-75
2021/11/23 16:27:50;;;;;;;2.10;0.80;;;9.10;99.90;;;;;;5092458;28;20402;-73
2021/11/23 16:30:20;;;;;;;7.65;1.42;;;9.00;99.90;;;;;;5098787;28;20071;-72
2021/11/23 16:32:46;;;;;;;6.40;2.33;;;9.00;99.90;;;;;;5102205;27;20020;-73
2021/11/23 16:35:12;;;;;;;4.18;2.00;;;9.00;99.90;;;;;;5092753;28;20028;-72
2021/11/23 16:37:38;;;;;;;4.63;1.85;;;9.00;99.90;;;;;;5092114;28;20060;-73
2021/11/23 16:40:08;;;;;;;6.97;2.35;;;9.00;99.90;;;;;;5093114;28;20071;-74
2021/11/23 16:42:34;;;;;;;2.05;1.65;;;8.90;99.90;;;;;;5106689;28;20035;-73
2021/11/23 16:45:00;;;;;;;5.28;1.77;;;9.10;99.90;;;;;;5100067;28;20089;-69
2021/11/23 16:47:26;;;;;;;3.83;1.85;;;8.90;99.90;;;;;;5081656;28;20028;-69
2021/11/23 16:49:53;;;;;;;5.55;1.38;;;8.90;99.90;;;;;;5095461;28;20024;-69
2021/11/23 16:52:19;;;;;;;9.52;1.55;;;8.90;99.90;;;;;;5087032;28;20023;-70
2021/11/23 16:54:47;;;;;;;2.00;1.17;;;8.90;99.90;;;;;;5085259;28;20035;-69
2021/11/23 16:57:12;;;;;;;10.65;2.13;;;8.90;99.90;;;;;;5093520;28;20070;-70
2021/11/23 16:59:42;;;;;;;6.55;1.70;;;8.90;99.90;;;;;;5089973;28;20238;-71
2021/11/23 17:02:08;;;;;;;6.75;1.80;;;8.80;99.90;;;;;;5087374;28;20493;-70
2021/11/23 17:04:34;;;;;;;5.30;2.00;;;8.80;99.90;;;;;;5104820;28;20020;-68
2021/11/23 17:07:00;;;;;;;4.88;2.20;;;8.70;99.90;;;;;;5102659;28;20035;-66
2021/11/23 17:09:30;;;;;;;6.97;1.90;;;8.70;99.90;;;;;;5095042;28;20528;-66
2021/11/23 17:11:56;;;;;;;6.43;2.38;;;8.60;99.90;;;;;;5112162;28;20036;-65
2021/11/23 17:14:22;;;;;;;5.78;2.47;;;8.60;99.90;;;;;;5103083;28;20030;-68
2021/11/23 17:16:49;;;;;;;6.65;3.08;;;8.50;99.90;;;;;;5105672;28;20058;-70
2021/11/23 17:19:16;;;;;;;7.22;3.72;;;8.50;99.90;;;;;;5103431;28;20088;-66
2021/11/23 17:21:42;;;;;;;35.80;13.68;;;8.50;99.90;;;;;;5084872;28;20424;-70
2021/11/23 17:24:08;;;;;;;37.22;18.85;;;8.40;99.90;;;;;;5099466;28;20069;-65
2021/11/23 17:26:37;;;;;;;17.95;8.15;;;8.50;99.90;;;;;;5088253;28;20052;-70
2021/11/23 17:29:03;;;;;;;11.95;4.45;;;8.50;99.90;;;;;;5092151;28;20028;-65
2021/11/23 17:31:29;;;;;;;3.88;2.92;;;8.50;99.90;;;;;;5078396;28;20036;-67
2021/11/23 17:33:55;;;;;;;8.95;4.38;;;8.60;99.90;;;;;;5081873;28;20093;-68
2021/11/23 17:36:22;;;;;;;10.43;4.78;;;8.60;99.90;;;;;;5096508;28;20396;-66
2021/11/23 17:38:48;;;;;;;9.82;5.10;;;8.60;99.90;;;;;;5095252;28;20024;-67
2021/11/23 17:41:14;;;;;;;7.40;3.95;;;8.60;99.90;;;;;;5098809;28;20026;-67
2021/11/23 17:43:40;;;;;;;6.95;3.72;;;8.70;99.90;;;;;;5092538;28;20379;-70
2021/11/23 17:46:06;;;;;;;6.63;3.25;;;8.80;99.90;;;;;;5085963;28;20448;-65
2021/11/23 17:48:32;;;;;;;10.07;3.70;;;8.90;99.90;;;;;;5077990;28;20107;-69
2021/11/23 17:50:57;;;;;;;6.78;3.60;;;9.00;99.90;;;;;;5100581;28;20076;-73
2021/11/23 17:53:23;;;;;;;3.97;2.10;;;9.20;99.90;;;;;;5066292;28;20529;-66
2021/11/23 17:55:50;;;;;;;8.18;3.15;;;9.20;99.90;;;;;;5092511;28;20020;-67
2021/11/23 17:58:16;;;;;;;6.60;3.17;;;9.30;99.90;;;;;;5076249;28;20036;-68
2021/11/23 18:00:43;;;;;;;6.00;2.40;;;9.40;99.90;;;;;;5090436;28;20028;-73
2021/11/23 18:03:09;;;;;;;6.80;3.13;;;9.40;99.90;;;;;;5082672;28;20055;-74
2021/11/23 18:05:35;;;;;;;6.40;2.45;;;9.40;99.90;;;;;;5073406;28;20486;-75
2021/11/23 18:08:00;;;;;;;5.00;2.15;;;9.40;99.90;;;;;;5091026;28;20020;-73
2021/11/23 18:10:28;;;;;;;2.97;1.67;;;9.40;99.90;;;;;;5089545;28;20047;-74
2021/11/23 18:13:02;;;;;;;4.78;1.90;;;9.40;99.90;;;;;;5099458;28;20040;-74
2021/11/23 18:15:28;;;;;;;4.40;1.85;;;9.50;99.90;;;;;;5098800;28;20486;-74
2021/11/23 18:17:56;;;;;;;4.47;1.90;;;9.50;99.90;;;;;;5099489;28;20089;-71
2021/11/23 18:20:22;;;;;;;6.00;2.08;;;9.60;99.90;;;;;;5089361;28;20025;-72
2021/11/23 18:22:48;;;;;;;6.15;3.35;;;9.60;99.90;;;;;;5098871;28;20394;-75
2021/11/23 18:25:17;;;;;;;6.80;2.75;;;9.60;99.90;;;;;;5096901;28;20093;-73
2021/11/23 18:27:43;;;;;;;7.78;2.55;;;9.50;99.90;;;;;;5089655;28;20520;-73
2021/11/23 18:30:09;;;;;;;5.28;2.45;;;9.50;99.90;;;;;;5073391;28;20026;-70
2021/11/23 18:32:35;;;;;;;6.82;2.53;;;9.40;99.90;;;;;;5099443;27;20043;-71
2021/11/23 18:35:01;;;;;;;3.72;1.80;;;9.30;99.90;;;;;;5126194;27;20031;-68
2021/11/23 18:37:26;;;;;;;4.13;1.83;;;9.20;99.90;;;;;;5106040;27;20572;-69
2021/11/23 18:39:52;;;;;;;6.65;3.15;;;9.10;99.90;;;;;;5103495;27;20546;-68
2021/11/23 18:42:19;;;;;;;6.38;3.20;;;9.10;99.90;;;;;;5129553;27;20114;-71
2021/11/23 18:44:45;;;;;;;6.68;3.78;;;9.00;99.90;;;;;;5099957;27;20544;-68
2021/11/23 18:47:11;;;;;;;6.68;3.45;;;8.90;99.90;;;;;;5102670;27;20501;-69
2021/11/23 18:49:38;;;;;;;18.17;4.90;;;8.80;99.90;;;;;;5102861;27;20027;-69
2021/11/23 18:52:04;;;;;;;6.68;4.15;;;8.70;99.90;;;;;;5099266;27;20023;-71
2021/11/23 18:54:30;;;;;;;11.20;4.28;;;8.60;99.90;;;;;;5087835;27;20046;-69
2021/11/23 18:56:56;;;;;;;8.38;4.88;;;8.50;99.90;;;;;;5109015;27;20393;-68
2021/11/23 18:59:23;;;;;;;9.68;5.32;;;8.40;99.90;;;;;;5096613;28;20762;-69
2021/11/23 19:01:48;;;;;;;8.95;5.90;;;8.30;99.90;;;;;;5109160;27;20114;-68
2021/11/23 19:04:14;;;;;;;12.38;7.50;;;8.30;99.90;;;;;;5092300;27;20153;-69
2021/11/23 19:06:40;;;;;;;11.93;7.57;;;8.20;99.90;;;;;;5104713;27;20385;-69
2021/11/23 19:09:05;;;;;;;15.20;7.28;;;8.10;99.90;;;;;;5104915;27;20035;-68
2021/11/23 19:11:33;;;;;;;18.35;7.10;;;8.00;99.90;;;;;;5105844;28;20031;-67
2021/11/23 19:13:59;;;;;;;10.02;6.40;;;8.00;99.90;;;;;;5097418;27;20027;-72
2021/11/23 19:16:24;;;;;;;12.13;5.70;;;8.00;99.90;;;;;;5100731;27;20039;-66
2021/11/23 19:18:50;;;;;;;9.55;6.57;;;8.00;99.90;;;;;;5115915;27;20088;-67
2021/11/23 19:21:16;;;;;;;15.00;7.43;;;8.00;99.90;;;;;;5097330;27;20118;-65
2021/11/23 19:23:42;;;;;;;14.02;6.57;;;8.10;99.90;;;;;;5105788;27;20055;-65
2021/11/23 19:26:08;;;;;;;21.13;10.23;;;8.10;99.90;;;;;;5121225;27;20039;-63
2021/11/23 19:28:33;;;;;;;43.45;18.98;;;8.10;99.90;;;;;;5118836;27;20110;-68
2021/11/23 19:30:59;;;;;;;22.27;12.20;;;8.10;99.90;;;;;;5124491;27;20053;-63
2021/11/23 19:33:25;;;;;;;13.90;8.48;;;8.20;99.90;;;;;;5102961;27;20393;-70
2021/11/23 19:35:51;;;;;;;19.65;10.73;;;8.20;99.90;;;;;;5099683;27;20020;-68
2021/11/23 19:38:18;;;;;;;18.80;10.45;;;8.20;99.90;;;;;;5096274;27;20538;-65
2021/11/23 19:40:45;;;;;;;23.20;10.05;;;8.30;99.90;;;;;;5094020;27;20076;-66
2021/11/23 19:43:11;;;;;;;22.52;11.80;;;8.30;99.90;;;;;;5100238;27;20032;-67
2021/11/23 19:45:38;;;;;;;13.18;7.90;;;8.40;99.90;;;;;;5087240;27;20012;-69
2021/11/23 19:48:04;;;;;;;14.48;8.38;;;8.50;99.90;;;;;;5088879;27;20031;-73
2021/11/23 19:50:30;;;;;;;19.98;8.85;;;8.50;99.90;;;;;;5089545;27;20093;-74
2021/11/23 19:52:56;;;;;;;13.85;7.50;;;8.60;99.90;;;;;;5105051;27;20065;-73
2021/11/23 19:55:23;;;;;;;16.88;7.90;;;8.70;99.90;;;;;;5104149;27;20019;-74
2021/11/23 19:57:49;;;;;;;12.68;6.65;;;8.70;99.90;;;;;;5099362;28;20061;-72
2021/11/23 20:00:16;;;;;;;7.05;4.18;;;8.70;99.90;;;;;;5127044;27;20022;-74
2021/11/23 20:02:42;;;;;;;5.05;3.50;;;8.60;99.90;;;;;;5082362;28;20037;-77
2021/11/23 20:05:08;;;;;;;4.13;2.63;;;8.60;99.90;;;;;;5095175;27;20485;-74
2021/11/23 20:07:35;;;;;;;3.72;2.30;;;8.50;99.90;;;;;;5117697;27;20038;-76
2021/11/23 20:10:05;;;;;;;5.22;2.20;;;8.50;99.90;;;;;;5102304;27;20019;-75
2021/11/23 20:12:30;;;;;;;3.53;1.80;;;8.50;99.90;;;;;;5113765;27;20067;-75
2021/11/23 20:14:56;;;;;;;9.27;1.95;;;8.50;99.90;;;;;;5098891;27;20046;-76
2021/11/23 20:17:22;;;;;;;3.50;2.03;;;8.70;99.90;;;;;;5102534;27;20043;-73
2021/11/23 20:19:49;;;;;;;2.20;1.70;;;8.70;99.90;;;;;;5120741;27;20031;-73
2021/11/23 20:22:17;;;;;;;7.88;1.88;;;8.80;99.90;;;;;;5115278;27;20035;-72
2021/11/23 20:24:44;;;;;;;9.30;2.40;;;8.80;99.90;;;;;;5094217;27;20140;-72
2021/11/23 20:27:10;;;;;;;4.00;1.95;;;8.80;99.90;;;;;;5104977;27;20138;-72
2021/11/23 20:29:36;;;;;;;6.43;2.90;;;8.80;99.90;;;;;;5099567;28;20157;-72
2021/11/23 20:32:04;;;;;;;6.35;2.35;;;8.80;99.90;;;;;;5074313;27;20032;-73
2021/11/23 20:34:31;;;;;;;4.28;3.30;;;8.80;99.90;;;;;;5103831;27;20019;-71
2021/11/23 20:36:58;;;;;;;8.05;3.28;;;8.90;99.90;;;;;;5117709;27;20031;-72
2021/11/23 20:39:24;;;;;;;3.60;2.45;;;8.90;99.90;;;;;;5090575;27;20054;-71
2021/11/23 20:41:49;;;;;;;3.47;2.05;;;8.80;99.90;;;;;;5117955;27;20034;-73
2021/11/23 20:44:16;;;;;;;6.63;1.67;;;8.80;99.90;;;;;;5097668;27;20038;-74
2021/11/23 20:46:41;;;;;;;4.65;1.50;;;8.80;99.90;;;;;;5096329;27;20470;-73
2021/11/23 20:49:07;;;;;;;5.30;1.63;;;8.90;99.90;;;;;;5091698;27;20027;-73
2021/11/23 20:51:36;;;;;;;3.90;1.42;;;8.80;99.90;;;;;;5089955;28;20059;-76
2021/11/23 20:54:02;;;;;;;4.28;1.83;;;8.80;99.90;;;;;;5086229;28;20023;-73
2021/11/23 20:56:27;;;;;;;3.55;1.00;;;8.70;99.90;;;;;;5103822;27;20024;-75
2021/11/23 20:58:53;;;;;;;6.75;2.78;;;8.70;99.90;;;;;;5123496;27;20443;-75
2021/11/23 21:01:18;;;;;;;7.60;3.50;;;8.70;99.90;;;;;;5101309;27;20031;-72
2021/11/23 21:03:47;;;;;;;6.95;3.10;;;8.80;99.90;;;;;;5100949;27;20031;-74
2021/11/23 21:06:15;;;;;;;4.28;2.55;;;8.70;99.90;;;;;;5125433;27;21130;-76
2021/11/23 21:08:41;;;;;;;4.75;3.00;;;8.80;99.90;;;;;;5115791;27;20481;-71
2021/11/23 21:11:07;;;;;;;3.53;1.73;;;8.90;99.90;;;;;;5094622;27;20024;-66
2021/11/23 21:13:33;;;;;;;3.20;1.42;;;8.90;99.90;;;;;;5104715;27;20027;-70
2021/11/23 21:15:58;;;;;;;3.60;1.60;;;8.90;99.90;;;;;;5090866;27;20026;-71
2021/11/23 21:18:24;;;;;;;6.50;2.13;;;9.00;99.90;;;;;;5104702;27;20068;-65
2021/11/23 21:20:49;;;;;;;3.35;1.10;;;9.00;99.90;;;;;;5121156;27;20030;-68
2021/11/23 21:23:15;;;;;;;2.80;1.17;;;9.10;99.90;;;;;;5101584;28;20038;-65
2021/11/23 21:25:41;;;;;;;3.63;1.23;;;9.00;99.90;;;;;;5113536;27;20054;-72
2021/11/23 21:28:06;;;;;;;3.28;1.25;;;9.00;99.90;;;;;;5113283;27;20038;-65
2021/11/23 21:30:32;;;;;;;5.50;1.60;;;9.00;99.90;;;;;;5118857;27;20595;-73
2021/11/23 21:32:58;;;;;;;3.90;1.75;;;9.00;99.90;;;;;;5112060;27;20047;-72
2021/11/23 21:35:24;;;;;;;3.00;1.77;;;9.00;99.90;;;;;;5104849;27;20409;-67
2021/11/23 21:37:50;;;;;;;1.90;1.23;;;9.00;99.90;;;;;;5114183;27;20122;-70
2021/11/23 21:40:18;;;;;;;5.53;1.65;;;8.90;99.90;;;;;;5119410;27;20498;-77
2021/11/23 21:45:36;;;;;;;3.17;2.05;;;8.90;99.90;;;;;;5103464;27;20042;-77
2021/11/23 21:48:03;;;;;;;4.60;2.50;;;9.00;99.90;;;;;;5100784;28;20124;-76
2021/11/23 21:50:35;;;;;;;6.18;2.10;;;9.10;99.90;;;;;;5103809;27;20389;-76
2021/11/23 21:53:02;;;;;;;3.50;1.60;;;9.10;99.90;;;;;;5087750;27;20038;-73
2021/11/23 21:55:28;;;;;;;4.88;2.80;;;9.10;99.90;;;;;;5119097;27;20028;-77
2021/11/23 21:57:53;;;;;;;4.95;2.28;;;9.10;99.90;;;;;;5104479;27;20054;-72
2021/11/23 22:00:19;;;;;;;3.97;1.80;;;9.20;99.90;;;;;;5116090;27;20027;-75
2021/11/23 22:02:44;;;;;;;6.35;1.98;;;9.10;99.90;;;;;;5105148;27;20038;-75
2021/11/23 22:05:10;;;;;;;2.47;1.50;;;9.20;99.90;;;;;;5095327;28;20057;-75
2021/11/23 22:07:36;;;;;;;4.20;1.70;;;9.20;99.90;;;;;;5095720;28;20401;-76
2021/11/23 22:10:02;;;;;;;5.22;2.25;;;9.20;99.90;;;;;;5099696;27;20020;-77
2021/11/23 22:12:29;;;;;;;9.25;1.48;;;9.20;99.90;;;;;;5094912;28;20147;-77
2021/11/23 22:14:55;;;;;;;3.75;1.90;;;9.20;99.90;;;;;;5103377;27;20027;-75
2021/11/23 22:17:20;;;;;;;4.68;2.28;;;9.20;99.90;;;;;;5112805;27;20092;-75
2021/11/23 22:19:46;;;;;;;8.13;4.88;;;9.20;99.90;;;;;;5115333;28;20019;-76
2021/11/23 22:22:11;;;;;;;10.98;4.93;;;9.20;99.90;;;;;;5093305;28;20031;-74
2021/11/23 22:24:37;;;;;;;12.60;6.70;;;9.30;99.90;;;;;;5098597;28;20020;-67
2021/11/23 22:27:02;;;;;;;13.27;6.15;;;9.30;99.90;;;;;;5100612;28;20047;-70
2021/11/23 22:29:28;;;;;;;11.90;3.70;;;9.30;99.90;;;;;;5097395;28;20027;-65
2021/11/23 22:31:54;;;;;;;8.25;4.25;;;9.30;99.90;;;;;;5079009;28;20477;-67
2021/11/23 22:34:20;;;;;;;13.40;6.43;;;9.40;99.90;;;;;;5091299;28;20028;-74
2021/11/23 22:36:46;;;;;;;10.40;4.68;;;9.40;99.90;;;;;;5094224;28;20035;-71
2021/11/23 22:39:12;;;;;;;6.38;3.00;;;9.40;99.90;;;;;;5097113;28;20511;-74
2021/11/23 22:41:38;;;;;;;4.18;2.13;;;9.40;99.90;;;;;;5097657;28;20031;-72
2021/11/23 22:44:04;;;;;;;5.88;1.75;;;9.40;99.90;;;;;;5104942;28;20038;-70
2021/11/23 22:46:30;;;;;;;9.57;4.35;;;9.40;99.90;;;;;;5120632;28;20023;-70
2021/11/23 22:48:55;;;;;;;9.90;4.03;;;9.40;99.90;;;;;;5094242;28;20031;-71
2021/11/23 22:51:21;;;;;;;8.10;2.58;;;9.50;99.90;;;;;;5124456;27;20123;-69
2021/11/23 22:53:46;;;;;;;6.68;3.25;;;9.40;99.90;;;;;;5100913;28;20401;-64
2021/11/23 22:56:12;;;;;;;7.57;4.05;;;9.40;99.90;;;;;;5075849;28;20081;-65
2021/11/23 22:58:37;;;;;;;4.93;2.63;;;9.50;99.90;;;;;;5081231;28;20031;-65
2021/11/23 23:01:05;;;;;;;7.22;2.70;;;9.50;99.90;;;;;;5093357;28;20111;-68
2021/11/23 23:03:31;;;;;;;9.18;2.83;;;9.50;99.90;;;;;;5080187;28;20024;-66
2021/11/23 23:05:57;;;;;;;4.35;2.40;;;9.50;99.90;;;;;;5097914;28;20031;-74
2021/11/23 23:08:22;;;;;;;9.70;3.50;;;9.50;99.90;;;;;;5098203;28;20045;-70
2021/11/23 23:10:48;;;;;;;9.68;5.20;;;9.50;99.90;;;;;;5094865;28;20038;-77
2021/11/23 23:13:14;;;;;;;5.18;2.88;;;9.40;99.90;;;;;;5088457;28;20393;-75
2021/11/23 23:15:39;;;;;;;8.02;4.65;;;9.40;99.90;;;;;;5089269;28;20023;-74
2021/11/23 23:18:07;;;;;;;6.40;4.10;;;9.40;99.90;;;;;;5084185;28;20032;-76
2021/11/23 23:20:32;;;;;;;3.90;2.58;;;9.50;99.90;;;;;;5124610;27;20376;-73
2021/11/23 23:22:58;;;;;;;6.18;2.13;;;9.50;99.90;;;;;;5120490;27;20020;-75
2021/11/23 23:25:24;;;;;;;4.45;1.65;;;9.50;99.90;;;;;;5079514;27;20058;-75
2021/11/23 23:27:55;;;;;;;5.30;2.03;;;9.50;99.90;;;;;;5099934;27;20039;-76
2021/11/23 23:30:30;;;;;;;2.35;1.50;;;9.50;99.90;;;;;;5113194;27;20601;-76
2021/11/23 23:32:56;;;;;;;7.43;2.47;;;9.50;99.90;;;;;;5116394;27;20023;-74
2021/11/23 23:35:21;;;;;;;5.50;2.03;;;9.50;99.90;;;;;;5101482;28;20068;-76
2021/11/23 23:37:47;;;;;;;3.38;2.10;;;9.50;99.90;;;;;;5079436;27;20059;-75
2021/11/23 23:40:12;;;;;;;9.57;2.20;;;9.50;99.90;;;;;;5108499;27;20024;-70
2021/11/23 23:42:38;;;;;;;4.07;2.30;;;9.50;99.90;;;;;;5099923;27;20031;-73
2021/11/23 23:45:04;;;;;;;3.30;2.20;;;9.50;99.90;;;;;;5092494;28;20020;-72
2021/11/23 23:47:29;;;;;;;6.88;2.28;;;9.50;99.90;;;;;;5094696;28;20050;-72
2021/11/23 23:49:55;;;;;;;5.18;2.33;;;9.50;99.90;;;;;;5092023;27;20059;-73
2021/11/23 23:52:21;;;;;;;5.75;2.38;;;9.50;99.90;;;;;;5110980;27;20119;-76
2021/11/23 23:54:46;;;;;;;4.40;2.42;;;9.50;99.90;;;;;;5086991;27;20032;-73
2021/11/23 23:57:12;;;;;;;7.45;3.05;;;9.50;99.90;;;;;;5091141;28;20039;-76
2021/11/23 23:59:37;;;;;;;4.55;2.58;;;9.40;99.90;;;;;;5099606;28;20065;-73
